METAR AND TAF INFORMATION
METAR FOR PASM
ADDS - METARS form results

(0748 UTC 21 November 2019)
Data provider http://aviationweather.gov/metar/data/
 
METAR text: PASM 210740Z AUTO 35006KT 1 1/2SM UP BR OVC003 M06/M07 A2897 RMK AO2 P0000 FZRANO
Conditions at: PASM (SAINT MARYS , AK, US) observed 0740 UTC 21 November 2019
Temperature: -6.0°C (21°F)
Dewpoint: -7.0°C (19°F) [RH = 93%]
Pressure (altimeter): 28.97 inches Hg (981.1 mb)
Winds: from the N (350 degrees) at 7 MPH (6 knots; 3.1 m/s)
Visibility: 1.50 miles (2.41 km)
Ceiling: 300 feet AGL
Clouds: overcast cloud deck at 300 feet AGL
Weather: BR UP  (mist, unknown precipitation)

METAR text: PASM 210714Z AUTO 33005KT 1SM UP BR OVC003 M07/M07 A2896 RMK AO2 P0000 FZRANO
Conditions at: PASM (SAINT MARYS , AK, US) observed 0714 UTC 21 November 2019
Temperature: -7.0°C (19°F)
Dewpoint: -7.0°C (19°F) [RH = 100%]
Pressure (altimeter): 28.96 inches Hg (980.8 mb)
Winds: from the NNW (330 degrees) at 6 MPH (5 knots; 2.6 m/s)
Visibility: 1.00 miles (1.61 km)
Ceiling: 300 feet AGL
Clouds: overcast cloud deck at 300 feet AGL
Weather: BR UP  (mist, unknown precipitation)

METAR text: PASM 210702Z AUTO 32005KT 3/4SM UP BR OVC003 M07/M07 A2896 RMK AO2 UPB02SNB0603E0617B0649E02 SLP819 P0000 T10671072 FZRANO
Conditions at: PASM (SAINT MARYS , AK, US) observed 0702 UTC 21 November 2019
Temperature: -6.7°C (20°F)
Dewpoint: -7.2°C (19°F) [RH = 96%]
Pressure (altimeter): 28.96 inches Hg (980.8 mb)
[Sea-level pressure:  981.9 mb]
Winds: from the NW (320 degrees) at 6 MPH (5 knots; 2.6 m/s)
Visibility: 0.75 miles (1.21 km)
Ceiling: 300 feet AGL
Clouds: overcast cloud deck at 300 feet AGL
Weather: BR UP  (mist, unknown precipitation)

 AIRPORT MAP

 RUNWAY INFORMATION
Runway 06 Runway length 1900 ft Runway width 60 ft
Runway elevation 311 ft Runway displaced threshold 0 ft Runway heading 77
Runway 24 Runway length 1900 ft Runway width 60 ft
Runway elevation 301 ft Runway displaced threshold 375 ft Runway heading 257
Runway 17 Runway length 6003 ft Runway width 150 ft
Runway elevation 282 ft Runway displaced threshold 0 ft Runway heading 182
Runway 35 Runway length 6003 ft Runway width 150 ft
Runway elevation 303 ft Runway displaced threshold 0 ft Runway heading 2

 AIRPORT FREQUENCIES
Type AWOS Name AWOS 3 Frequency 128.7 MHZ
Type CNTR Name ANCHORAGE Frequency 124 MHZ
Type CTAF Name CTAF Frequency 122.3 MHZ
Type FSS Name KENAI RDO Frequency 122.35 MHZ
Type MISC Name TWEB Frequency 23 MHZ

 AIRPORT NEAR NAVIGATION AIDS
Type NDB Name Saint Marys Frequency 230 KHZ



We are a FlightSim virtual group and are in no way affiliated with RavnAir Group.

Powered by Virtual Airlines Manager [v2.6.2]